PWSweather.com
Personal Weather Stations
Station Observations
KTXPLANO60
Highlands Of Russell Park, Plano, TX 75025

Highlands Of Russell ParkPlano, TX 75025

Lat: 33.10431671, Lon: -96.75176239

Elevation: 761

Station Type: Davis Wireless VP2 Plus

http://www.planoweather.com

Latest ConditionsUpdated 9:20:07 AM CDT Saturday, May 30, 2015
Currently Today's Max Today's Min Today's Average
Temperature 65.9°F18.8°C 71.6°F22.0°C 65.2°F18.4°C 69.2°F20.7°C
Dew Point 65.3°F18.5°C 68.1°F20.1°C 62.9°F17.2°C 66.6°F19.2°C
Winds 4.6 mph NE7.4 kmh NE 16.1 mph SSW25.9 kmh SSW - 1.8 mph 2.9 kmh
Wind Gusts 7.0 mph11.3 kmh 22.0 mph35.4 kmh - -
Humidity 98% 98% 88% 92%
Pressure 29.98 in1015.2 mb 30.02 in1016.6 mb 29.89 in1012.2 mb -
Precipitation - 2.97 in75.4 mm - -
Hour Temp Dew Point Humidity Winds Wind Gusts Pressure Precip Precip Rate Daily Precip Total
09:20 AM 65.9°F18.8°C 65.3°F18.5°C 98% 4.6 mph NE7.4 kmh NE 7.0 mph11.3 kmh 29.98 in1015.2 mb - 0.01 in0.3 mm 2.97 in75.4 mm
09:10 AM 66.0°F18.9°C 65.4°F18.6°C 98% 3.3 mph NE5.3 kmh NE 4.0 mph6.4 kmh 29.98 in1015.2 mb - 0.00 in0.0 mm 2.96 in75.2 mm
09:00 AM 66.2°F19.0°C 65.3°F18.5°C 97% 6.1 mph NE9.8 kmh NE 8.0 mph12.9 kmh 29.98 in1015.2 mb - 0.01 in0.3 mm 2.96 in75.2 mm
08:50 AM 66.3°F19.1°C 65.4°F18.6°C 97% 3.6 mph NE5.8 kmh NE 7.0 mph11.3 kmh 29.98 in1015.2 mb - 0.03 in0.8 mm 2.95 in74.9 mm
08:40 AM 66.3°F19.1°C 65.4°F18.6°C 97% 5.5 mph NE8.9 kmh NE 9.0 mph14.5 kmh 29.99 in1015.6 mb - 0.07 in1.8 mm 2.93 in74.4 mm
08:30 AM 66.4°F19.1°C 65.5°F18.6°C 97% 6.7 mph N10.8 kmh N 10.0 mph16.1 kmh 30.00 in1015.9 mb - 0.06 in1.5 mm 2.87 in72.9 mm
08:20 AM 66.4°F19.1°C 65.5°F18.6°C 97% 0.1 mph NW0.2 kmh NW 2.0 mph3.2 kmh 30.02 in1016.6 mb - 0.04 in1.0 mm 2.82 in71.6 mm
08:10 AM 66.3°F19.1°C 65.4°F18.6°C 97% Calm Calm -- 30.02 in1016.6 mb - 0.03 in0.8 mm 2.78 in70.6 mm
08:00 AM 66.1°F18.9°C 65.2°F18.4°C 97% 0.2 mph NW0.3 kmh NW 2.0 mph3.2 kmh 30.01 in1016.3 mb - 0.02 in0.5 mm 2.75 in69.9 mm
07:50 AM 66.0°F18.9°C 65.1°F18.4°C 97% 0.2 mph NW0.3 kmh NW 2.0 mph3.2 kmh 30.01 in1016.3 mb - 0.03 in0.8 mm 2.73 in69.3 mm
07:40 AM 65.8°F18.8°C 64.9°F18.3°C 97% 4.9 mph NW7.9 kmh NW 7.0 mph11.3 kmh 30.00 in1015.9 mb - 0.03 in0.8 mm 2.70 in68.6 mm
07:30 AM 65.7°F18.7°C 64.8°F18.2°C 97% 3.7 mph NW6.0 kmh NW 6.0 mph9.7 kmh 30.00 in1015.9 mb - 0.04 in1.0 mm 2.68 in68.1 mm
07:20 AM 65.8°F18.8°C 64.9°F18.3°C 97% 5.9 mph W9.5 kmh W 11.0 mph17.7 kmh 29.99 in1015.6 mb - 0.27 in6.9 mm 2.65 in67.3 mm
07:10 AM 65.2°F18.4°C 64.0°F17.8°C 96% 2.8 mph SW4.5 kmh SW 16.0 mph25.7 kmh 30.00 in1015.9 mb - 0.49 in12.4 mm 2.41 in61.2 mm
07:00 AM 65.7°F18.7°C 64.5°F18.1°C 96% 16.1 mph SSW25.9 kmh SSW 22.0 mph35.4 kmh 30.01 in1016.3 mb - 0.48 in12.2 mm 2.00 in50.8 mm
06:50 AM 65.9°F18.8°C 64.4°F18.0°C 95% 6.2 mph SW10.0 kmh SW 12.0 mph19.3 kmh 30.00 in1015.9 mb - 0.18 in4.6 mm 1.52 in38.6 mm
06:40 AM 65.9°F18.8°C 64.4°F18.0°C 95% 1.9 mph NNE3.1 kmh NNE 4.0 mph6.4 kmh 29.94 in1013.9 mb - 0.26 in6.6 mm 1.36 in34.5 mm
06:30 AM 65.4°F18.6°C 63.9°F17.7°C 95% 3.6 mph NNE5.8 kmh NNE 7.0 mph11.3 kmh 29.94 in1013.9 mb - 0.08 in2.0 mm 1.11 in28.2 mm
06:20 AM 65.3°F18.5°C 62.9°F17.2°C 92% 4.4 mph NNE7.1 kmh NNE 6.0 mph9.7 kmh 29.91 in1012.9 mb - 0.17 in4.3 mm 1.04 in26.4 mm
06:10 AM 65.6°F18.7°C 62.9°F17.2°C 91% 2.3 mph NNE3.7 kmh NNE 5.0 mph8.0 kmh 29.93 in1013.5 mb - 0.02 in0.5 mm 0.88 in22.4 mm
06:00 AM 67.5°F19.7°C 65.0°F18.3°C 92% 5.7 mph NNE9.2 kmh NNE 9.0 mph14.5 kmh 29.91 in1012.9 mb - 0.21 in5.3 mm 0.86 in21.8 mm
05:50 AM 69.3°F20.7°C 67.5°F19.7°C 94% 4.7 mph NW7.6 kmh NW 7.0 mph11.3 kmh 29.93 in1013.5 mb - 0.20 in5.1 mm 0.68 in17.3 mm
05:40 AM 70.0°F21.1°C 67.5°F19.7°C 92% 5.7 mph NW9.2 kmh NW 7.0 mph11.3 kmh 29.91 in1012.9 mb - 0.46 in11.7 mm 0.50 in12.7 mm
05:30 AM 70.9°F21.6°C 68.1°F20.1°C 91% Calm Calm -- 29.91 in1012.9 mb - 0.08 in2.0 mm 0.08 in2.0 mm
05:20 AM 71.1°F21.7°C 68.0°F20.0°C 90% Calm Calm -- 29.90 in1012.5 mb - 0.00 in0.0 mm 0.00 in0.0 mm
05:10 AM 71.3°F21.8°C 67.9°F19.9°C 89% 2.6 mph W4.2 kmh W 4.0 mph6.4 kmh 29.90 in1012.5 mb - 0.00 in0.0 mm 0.00 in0.0 mm
05:00 AM 71.4°F21.9°C 67.7°F19.8°C 88% Calm Calm -- 29.89 in1012.2 mb - 0.00 in0.0 mm 0.00 in0.0 mm
04:50 AM 71.4°F21.9°C 67.7°F19.8°C 88% 1.2 mph W1.9 kmh W 2.0 mph3.2 kmh 29.89 in1012.2 mb - 0.00 in0.0 mm 0.00 in0.0 mm
04:40 AM 71.4°F21.9°C 67.7°F19.8°C 88% 0.2 mph W0.3 kmh W -- 29.89 in1012.2 mb - 0.00 in0.0 mm 0.00 in0.0 mm
04:30 AM 71.5°F21.9°C 67.7°F19.8°C 88% 0.1 mph W0.2 kmh W 2.0 mph3.2 kmh 29.89 in1012.2 mb - 0.00 in0.0 mm 0.00 in0.0 mm
04:20 AM 71.4°F21.9°C 67.7°F19.8°C 88% Calm Calm -- 29.90 in1012.5 mb - 0.00 in0.0 mm 0.00 in0.0 mm
04:10 AM 71.3°F21.8°C 67.9°F19.9°C 89% Calm Calm -- 29.89 in1012.2 mb - 0.00 in0.0 mm 0.00 in0.0 mm
04:00 AM 71.1°F21.7°C 67.7°F19.8°C 89% Calm Calm -- 29.90 in1012.5 mb - 0.00 in0.0 mm 0.00 in0.0 mm
03:50 AM 71.1°F21.7°C 67.7°F19.8°C 89% Calm Calm -- 29.90 in1012.5 mb - 0.00 in0.0 mm 0.00 in0.0 mm
03:40 AM 71.1°F21.7°C 67.7°F19.8°C 89% Calm Calm -- 29.90 in1012.5 mb - 0.00 in0.0 mm 0.00 in0.0 mm
03:30 AM 71.2°F21.8°C 67.8°F19.9°C 89% 0.4 mph W0.6 kmh W 3.0 mph4.8 kmh 29.90 in1012.5 mb - 0.00 in0.0 mm 0.00 in0.0 mm
03:20 AM 71.2°F21.8°C 67.8°F19.9°C 89% 0.3 mph W0.5 kmh W 2.0 mph3.2 kmh 29.90 in1012.5 mb - 0.00 in0.0 mm 0.00 in0.0 mm
03:10 AM 71.0°F21.7°C 67.6°F19.8°C 89% Calm Calm 2.0 mph3.2 kmh 29.90 in1012.5 mb - 0.00 in0.0 mm 0.00 in0.0 mm
03:00 AM 71.0°F21.7°C 67.9°F19.9°C 90% Calm Calm -- 29.90 in1012.5 mb - 0.00 in0.0 mm 0.00 in0.0 mm
02:50 AM 70.9°F21.6°C 67.8°F19.9°C 90% Calm Calm -- 29.90 in1012.5 mb - 0.00 in0.0 mm 0.00 in0.0 mm
02:40 AM 70.9°F21.6°C 67.8°F19.9°C 90% Calm Calm -- 29.90 in1012.5 mb - 0.00 in0.0 mm 0.00 in0.0 mm
02:30 AM 71.0°F21.7°C 67.6°F19.8°C 89% Calm Calm -- 29.90 in1012.5 mb - 0.00 in0.0 mm 0.00 in0.0 mm
02:20 AM 71.1°F21.7°C 67.7°F19.8°C 89% Calm Calm -- 29.90 in1012.5 mb - 0.00 in0.0 mm 0.00 in0.0 mm
02:10 AM 71.3°F21.8°C 67.6°F19.8°C 88% Calm Calm -- 29.90 in1012.5 mb - 0.00 in0.0 mm 0.00 in0.0 mm
02:00 AM 71.5°F21.9°C 67.8°F19.9°C 88% Calm Calm -- 29.91 in1012.9 mb - 0.00 in0.0 mm 0.00 in0.0 mm
01:50 AM 71.6°F22.0°C 67.9°F19.9°C 88% Calm Calm -- 29.91 in1012.9 mb - 0.00 in0.0 mm 0.00 in0.0 mm
01:40 AM 71.5°F21.9°C 67.8°F19.9°C 88% Calm Calm -- 29.92 in1013.2 mb - 0.00 in0.0 mm 0.00 in0.0 mm
01:30 AM 71.2°F21.8°C 67.8°F19.9°C 89% Calm Calm -- 29.92 in1013.2 mb - 0.00 in0.0 mm 0.00 in0.0 mm
01:20 AM 71.1°F21.7°C 67.7°F19.8°C 89% Calm Calm -- 29.92 in1013.2 mb - 0.00 in0.0 mm 0.00 in0.0 mm
01:10 AM 70.8°F21.6°C 67.4°F19.7°C 89% Calm Calm -- 29.92 in1013.2 mb - 0.00 in0.0 mm 0.00 in0.0 mm
01:00 AM 70.7°F21.5°C 67.3°F19.6°C 89% Calm Calm -- 29.92 in1013.2 mb - 0.00 in0.0 mm 0.00 in0.0 mm
12:50 AM 70.8°F21.6°C 67.4°F19.7°C 89% Calm Calm -- 29.92 in1013.2 mb - 0.00 in0.0 mm 0.00 in0.0 mm
12:40 AM 70.8°F21.6°C 67.4°F19.7°C 89% Calm Calm -- 29.92 in1013.2 mb - 0.00 in0.0 mm 0.00 in0.0 mm
12:30 AM 70.9°F21.6°C 67.2°F19.6°C 88% Calm Calm -- 29.91 in1012.9 mb - 0.00 in0.0 mm 0.00 in0.0 mm
12:20 AM 71.0°F21.7°C 67.3°F19.6°C 88% Calm Calm -- 29.92 in1013.2 mb - 0.00 in0.0 mm 0.00 in0.0 mm
12:10 AM 71.2°F21.8°C 67.5°F19.7°C 88% Calm Calm -- 29.91 in1012.9 mb - 0.00 in0.0 mm 0.00 in0.0 mm
12:00 AM 71.2°F21.8°C 67.5°F19.7°C 88% Calm Calm -- 29.91 in1012.9 mb - 0.00 in0.0 mm 0.00 in0.0 mm